Time;durP1;ratioP1;P1;durP2;ratioP2;P2;SDS_P1;SDS_P2;PMS_P1;PMS_P2;Temp;Humidity;BMP_temperature;BMP_pressure;BME280_temperature;BME280_humidity;BME280_pressure;Samples;Min_cycle;Max_cycle;Signal;HPM_P1;HPM_P2
2021/01/11 00:00:26;;;;;;;30.12;19.67;;;;;;;1.08;66.08;101255.05;1710357;82;21190;-38
2021/01/11 00:02:54;;;;;;;27.35;19.48;;;;;;;1.07;66.14;101248.06;1720220;82;21142;-40
2021/01/11 00:05:22;;;;;;;24.12;15.70;;;;;;;1.10;66.11;101239.28;1710138;82;21215;-40
2021/01/11 00:07:51;;;;;;;25.57;15.90;;;;;;;1.12;66.02;101235.77;1712135;82;21570;-40
2021/01/11 00:10:19;;;;;;;24.50;16.65;;;;;;;1.14;65.96;101234.00;1710591;82;21135;-39
2021/01/11 00:12:46;;;;;;;30.40;18.07;;;;;;;1.14;65.87;101230.05;1717995;82;21143;-42
2021/01/11 00:15:15;;;;;;;29.70;17.95;;;;;;;1.12;65.77;101237.08;1706509;82;21566;-39
2021/01/11 00:17:43;;;;;;;27.85;19.25;;;;;;;1.11;65.78;101243.64;1705359;82;21182;-44
2021/01/11 00:20:11;;;;;;;35.28;24.72;;;;;;;1.06;65.75;101241.08;1709763;82;21460;-41
2021/01/11 00:22:42;;;;;;;30.43;22.25;;;;;;;1.05;65.66;101240.17;1703641;82;21578;-42
2021/01/11 00:25:11;;;;;;;28.80;20.75;;;;;;;1.02;65.62;101248.09;1704884;82;21151;-43
2021/01/11 00:27:39;;;;;;;30.75;20.70;;;;;;;1.04;65.56;101242.84;1706894;82;21142;-43
2021/01/11 00:30:08;;;;;;;34.13;22.42;;;;;;;1.02;65.55;101249.40;1703949;82;21154;-43
2021/01/11 00:32:36;;;;;;;39.63;25.97;;;;;;;1.00;65.52;101256.41;1672239;84;21167;-44
2021/01/11 00:35:05;;;;;;;35.95;24.87;;;;;;;0.98;65.58;101254.27;1649195;85;21167;-45
2021/01/11 00:37:33;;;;;;;29.20;20.32;;;;;;;0.97;65.46;101250.33;1661060;85;22059;-41
2021/01/11 00:40:02;;;;;;;27.42;18.50;;;;;;;0.92;65.37;101248.17;1673707;84;21188;-46
2021/01/11 00:42:36;;;;;;;24.30;17.42;;;;;;;0.86;65.35;101247.77;1683471;83;21176;-41
2021/01/11 00:45:07;;;;;;;22.10;15.63;;;;;;;0.82;65.21;101248.66;1669539;84;21168;-41
2021/01/11 00:47:40;;;;;;;24.25;16.48;;;;;;;0.76;65.23;101250.89;1689758;83;21175;-45
2021/01/11 00:50:09;;;;;;;22.85;16.20;;;;;;;0.74;65.24;101243.91;1679193;83;21180;-42
2021/01/11 00:52:37;;;;;;;24.95;16.23;;;;;;;0.71;65.08;101246.56;1665436;84;21333;-42
2021/01/11 00:55:07;;;;;;;24.15;17.75;;;;;;;0.66;65.10;101259.70;1668709;84;21938;-43
2021/01/11 00:57:36;;;;;;;23.77;16.30;;;;;;;0.65;65.08;101267.13;1667787;84;21447;-40
2021/01/11 01:00:08;;;;;;;24.40;16.35;;;;;;;0.62;64.93;101261.91;1669235;84;21134;-42
2021/01/11 01:02:38;;;;;;;24.72;16.95;;;;;;;0.58;64.87;101261.06;1682231;83;21167;-43
2021/01/11 01:05:10;;;;;;;23.67;17.25;;;;;;;0.59;64.82;101258.85;1681831;83;22117;-41
2021/01/11 01:07:41;;;;;;;22.40;15.90;;;;;;;0.61;64.74;101250.98;1684619;83;21119;-40
2021/01/11 01:10:11;;;;;;;26.17;17.17;;;;;;;0.62;64.57;101253.58;1651536;85;21472;-41
2021/01/11 01:12:38;;;;;;;25.97;17.37;;;;;;;0.63;64.38;101260.59;1658934;85;21934;-43
2021/01/11 01:15:07;;;;;;;24.87;17.35;;;;;;;0.59;64.32;101256.23;1668876;84;21627;-43
2021/01/11 01:17:37;;;;;;;26.37;17.57;;;;;;;0.54;64.24;101261.08;1693973;83;21840;-43
2021/01/11 01:20:07;;;;;;;22.50;16.90;;;;;;;0.47;64.36;101264.61;1671140;84;21187;-45
2021/01/11 01:22:34;;;;;;;21.87;15.58;;;;;;;0.36;64.66;101263.34;1670035;84;21203;-43
2021/01/11 01:25:02;;;;;;;22.10;14.93;;;;;;;0.26;65.12;101266.45;1665659;84;21170;-43
2021/01/11 01:27:30;;;;;;;23.45;16.12;;;;;;;0.14;65.50;101266.03;1669474;84;21144;-43
2021/01/11 01:29:57;;;;;;;25.08;15.48;;;;;;;0.12;65.49;101265.16;1685027;83;21710;-42
2021/01/11 01:32:25;;;;;;;18.02;13.72;;;;;;;0.15;65.24;101269.52;1668830;84;21179;-45
2021/01/11 01:34:53;;;;;;;23.65;15.55;;;;;;;0.17;65.17;101266.47;1679776;83;21702;-44
2021/01/11 01:37:20;;;;;;;24.25;16.50;;;;;;;0.23;65.04;101270.39;1679282;83;21178;-43
2021/01/11 01:39:48;;;;;;;22.37;15.48;;;;;;;0.26;64.88;101264.27;1647773;85;21172;-42
2021/01/11 01:42:15;;;;;;;21.37;14.40;;;;;;;0.26;64.75;101265.13;1713974;82;21575;-43
2021/01/11 01:44:43;;;;;;;17.55;14.35;;;;;;;0.24;64.67;101268.20;1709633;82;21649;-41
2021/01/11 01:47:10;;;;;;;20.45;13.95;;;;;;;0.23;64.55;101270.39;1714109;82;21186;-43
2021/01/11 01:49:38;;;;;;;17.55;13.28;;;;;;;0.23;64.48;101272.13;1688193;83;21658;-42
2021/01/11 01:52:06;;;;;;;19.85;13.68;;;;;;;0.27;64.55;101281.74;1724203;82;21158;-41
2021/01/11 01:54:34;;;;;;;20.95;14.55;;;;;;;0.28;64.61;101284.37;1713098;82;21134;-41
2021/01/11 01:57:05;;;;;;;22.00;14.63;;;;;;;0.32;64.40;101284.78;1718944;82;21164;-42
2021/01/11 01:59:32;;;;;;;21.12;14.85;;;;;;;0.35;64.24;101290.45;1705335;82;21860;-42
2021/01/11 02:02:03;;;;;;;20.12;12.85;;;;;;;0.34;64.24;101292.21;1703268;82;21657;-44
2021/01/11 02:04:30;;;;;;;18.30;13.58;;;;;;;0.34;64.18;101296.59;1689003;82;21284;-42
2021/01/11 02:07:04;;;;;;;20.20;12.90;;;;;;;0.31;64.07;101303.17;1710260;82;21159;-44
2021/01/11 02:09:42;;;;;;;25.15;15.72;;;;;;;0.25;63.95;101301.86;1708462;82;21148;-43
2021/01/11 02:12:18;;;;;;;19.95;13.38;;;;;;;0.17;63.92;101300.12;1707776;82;21190;-42
2021/01/11 02:15:06;;;;;;;22.60;13.80;;;;;;;0.11;63.81;101290.97;1717792;82;21134;-45
2021/01/11 02:17:47;;;;;;;29.70;17.23;;;;;;;0.08;63.76;101292.75;1681782;82;21277;-43
2021/01/11 02:20:53;;;;;;;37.93;19.48;;;;;;;0.05;63.92;101296.25;1676468;83;21198;-41
2021/01/11 02:23:51;;;;;;;29.25;17.77;;;;;;;0.12;64.24;101299.27;1798617;77;22638;-42
2021/01/11 02:26:59;;;;;;;29.48;18.48;;;;;;;0.13;64.21;101293.61;1775265;78;21152;-44
2021/01/11 02:29:35;;;;;;;30.45;18.25;;;;;;;0.14;64.09;101290.95;1768361;78;21125;-43
2021/01/11 02:32:04;;;;;;;23.87;17.12;;;;;;;0.09;64.05;101286.16;1770401;78;21138;-43
2021/01/11 02:34:32;;;;;;;29.92;19.73;;;;;;;0.05;64.18;101274.37;1751626;78;21141;-42
2021/01/11 02:36:59;;;;;;;28.30;18.90;;;;;;;-0.04;64.36;101263.47;1753693;78;21122;-42
2021/01/11 02:39:28;;;;;;;32.35;18.67;;;;;;;-0.14;64.52;101256.06;1771263;78;21619;-42
2021/01/11 02:41:55;;;;;;;31.40;19.05;;;;;;;-0.19;64.65;101260.45;1775470;78;21158;-45
2021/01/11 02:44:23;;;;;;;32.50;19.42;;;;;;;-0.21;64.75;101249.08;1772427;78;21149;-42
2021/01/11 02:46:51;;;;;;;27.13;18.17;;;;;;;-0.20;64.74;101239.05;1780775;78;21157;-43
2021/01/11 02:49:27;;;;;;;27.67;18.30;;;;;;;-0.19;64.67;101234.67;1724665;81;21114;-42
2021/01/11 02:52:09;;;;;;;30.00;19.10;;;;;;;-0.19;64.46;101234.67;1720393;81;21190;-42
2021/01/11 02:54:39;;;;;;;27.17;18.65;;;;;;;-0.20;64.47;101240.77;1716917;81;21133;-44
2021/01/11 02:57:31;;;;;;;22.10;17.40;;;;;;;-0.20;64.37;101241.67;1720540;81;21153;-44
2021/01/11 03:00:07;;;;;;;24.75;16.42;;;;;;;-0.21;64.43;101243.84;1724931;81;21134;-40
2021/01/11 03:02:43;;;;;;;23.70;15.98;;;;;;;-0.24;64.66;101238.16;1729577;81;21609;-44
2021/01/11 03:05:12;;;;;;;22.55;15.55;;;;;;;-0.23;64.61;101244.27;1725941;81;21123;-44
2021/01/11 03:07:42;;;;;;;23.45;15.05;;;;;;;-0.26;64.50;101250.84;1701607;82;21165;-43
2021/01/11 03:10:10;;;;;;;22.85;15.00;;;;;;;-0.27;64.64;101250.42;1701323;82;21126;-44
2021/01/11 03:12:38;;;;;;;18.00;13.35;;;;;;;-0.28;64.64;101251.27;1706908;82;21427;-46
2021/01/11 03:15:06;;;;;;;23.05;16.00;;;;;;;-0.27;64.60;101247.80;1705300;82;21197;-44
2021/01/11 03:17:34;;;;;;;20.30;14.73;;;;;;;-0.22;64.61;101252.59;1706083;82;21129;-44
2021/01/11 03:20:02;;;;;;;23.50;14.90;;;;;;;-0.16;64.76;101259.56;1706994;82;21142;-43
2021/01/11 03:22:29;;;;;;;22.70;17.00;;;;;;;-0.15;64.74;101267.44;1687815;82;21173;-43
2021/01/11 03:24:58;;;;;;;24.40;16.25;;;;;;;-0.13;64.65;101262.17;1670063;84;21193;-44
2021/01/11 03:27:25;;;;;;;27.62;19.50;;;;;;;-0.13;64.65;101266.11;1670123;84;21180;-42
2021/01/11 03:29:53;;;;;;;26.35;17.40;;;;;;;-0.13;64.79;101264.80;1667829;84;21161;-43
2021/01/11 03:32:21;;;;;;;25.65;17.70;;;;;;;-0.14;64.96;101276.17;1668365;84;21180;-43
2021/01/11 03:34:48;;;;;;;23.67;15.83;;;;;;;-0.14;65.16;101277.48;1650192;85;21173;-43
2021/01/11 03:37:17;;;;;;;28.10;17.70;;;;;;;-0.11;65.38;101286.20;1710740;82;21155;-42
2021/01/11 03:39:45;;;;;;;22.45;15.40;;;;;;;-0.06;65.51;101277.89;1713833;82;21702;-43
2021/01/11 03:42:13;;;;;;;24.23;16.50;;;;;;;-0.04;65.58;101282.70;1714057;82;21174;-41
2021/01/11 03:44:42;;;;;;;23.00;14.50;;;;;;;-0.01;65.68;101286.62;1715800;82;21159;-41
2021/01/11 03:47:10;;;;;;;21.97;14.30;;;;;;;0.02;65.76;101287.05;1716129;82;21163;-42
2021/01/11 03:49:37;;;;;;;23.52;15.05;;;;;;;0.05;65.82;101286.17;1714691;82;21157;-45
2021/01/11 03:52:05;;;;;;;23.55;16.75;;;;;;;0.09;65.77;101286.61;1714507;82;21175;-42
2021/01/11 03:54:33;;;;;;;25.23;17.25;;;;;;;0.10;65.75;101281.78;1715231;82;21159;-44
2021/01/11 03:57:01;;;;;;;25.70;17.10;;;;;;;0.13;65.73;101283.11;1715155;82;21182;-43
2021/01/11 03:59:28;;;;;;;27.10;18.12;;;;;;;0.14;65.81;101280.91;1713854;82;21488;-42
2021/01/11 04:01:57;;;;;;;26.73;17.00;;;;;;;0.15;65.81;101278.30;1713384;82;21564;-43
2021/01/11 04:04:25;;;;;;;24.18;16.17;;;;;;;0.16;65.85;101284.41;1717960;82;21147;-44
2021/01/11 04:06:54;;;;;;;24.25;16.12;;;;;;;0.15;65.92;101282.23;1714156;82;21118;-43
2021/01/11 04:09:21;;;;;;;28.12;17.73;;;;;;;0.13;66.06;101282.67;1712678;82;21195;-45
2021/01/11 04:11:50;;;;;;;24.20;16.65;;;;;;;0.13;66.21;101290.98;1713462;82;21605;-42
2021/01/11 04:14:21;;;;;;;24.12;16.35;;;;;;;0.13;66.29;101293.16;1713600;82;21145;-41
2021/01/11 04:16:53;;;;;;;28.45;19.15;;;;;;;0.12;66.41;101296.64;1712989;82;21181;-45
2021/01/11 04:19:21;;;;;;;25.25;17.15;;;;;;;0.13;66.67;101298.41;1711525;82;21352;-44
2021/01/11 04:21:50;;;;;;;24.27;17.60;;;;;;;0.19;66.78;101306.69;1708959;81;21166;-41
2021/01/11 04:24:21;;;;;;;25.90;17.40;;;;;;;0.21;66.68;101302.32;1745315;80;21130;-43
2021/01/11 04:27:11;;;;;;;23.07;15.55;;;;;;;0.22;66.78;101294.87;1751206;80;21141;-42
2021/01/11 04:29:43;;;;;;;29.52;18.70;;;;;;;0.25;66.84;101296.61;1748316;80;21150;-42
2021/01/11 04:32:14;;;;;;;24.12;16.80;;;;;;;0.27;66.93;101303.59;1748058;80;21131;-44
2021/01/11 04:34:42;;;;;;;25.60;17.10;;;;;;;0.30;67.08;101306.66;1745370;80;21301;-51
2021/01/11 04:37:10;;;;;;;28.57;17.85;;;;;;;0.31;67.15;101304.48;1746627;80;21157;-43
2021/01/11 04:39:39;;;;;;;30.40;20.32;;;;;;;0.33;67.24;101299.66;1748331;80;21181;-42
2021/01/11 04:42:11;;;;;;;31.87;21.97;;;;;;;0.38;67.28;101299.66;1746308;80;21682;-42
2021/01/11 04:44:39;;;;;;;30.20;21.02;;;;;;;0.42;67.34;101296.12;1708892;82;21138;-42
2021/01/11 04:47:13;;;;;;;30.20;19.65;;;;;;;0.46;67.31;101282.11;1681461;83;21155;-46
2021/01/11 04:49:41;;;;;;;27.73;19.98;;;;;;;0.51;67.18;101286.04;1727799;80;21142;-45
2021/01/11 04:52:10;;;;;;;26.30;17.95;;;;;;;0.50;67.06;101289.08;1745144;80;21173;-44
2021/01/11 04:54:38;;;;;;;23.77;17.23;;;;;;;0.51;67.01;101292.16;1718831;81;21157;-44
2021/01/11 04:57:06;;;;;;;23.52;17.20;;;;;;;0.50;67.01;101292.14;1716360;80;21148;-43
2021/01/11 04:59:33;;;;;;;25.43;17.57;;;;;;;0.49;67.13;101300.47;1750164;80;21470;-44
2021/01/11 05:02:01;;;;;;;25.80;17.75;;;;;;;0.49;67.25;101291.28;1748210;80;21184;-46
2021/01/11 05:04:28;;;;;;;24.37;18.00;;;;;;;0.51;67.25;101296.09;1719607;80;21141;-45
2021/01/11 05:07:01;;;;;;;26.30;17.37;;;;;;;0.52;67.22;101297.82;1740625;80;21207;-43
2021/01/11 05:09:32;;;;;;;25.85;17.30;;;;;;;0.57;67.17;101303.06;1751954;80;21590;-45
2021/01/11 05:12:12;;;;;;;26.77;19.02;;;;;;;0.60;67.07;101301.72;1744278;80;21153;-45
2021/01/11 05:14:42;;;;;;;26.42;18.02;;;;;;;0.64;67.03;101302.16;1744979;80;21118;-45
2021/01/11 05:17:13;;;;;;;24.57;18.17;;;;;;;0.67;67.01;101295.57;1746584;80;21162;-45
2021/01/11 05:19:40;;;;;;;22.07;16.20;;;;;;;0.70;67.04;101292.06;1712119;82;21883;-45
2021/01/11 05:22:11;;;;;;;27.25;18.60;;;;;;;0.70;67.03;101291.61;1751412;80;21589;-46
2021/01/11 05:24:45;;;;;;;23.27;15.38;;;;;;;0.73;66.96;101292.03;1740469;80;21166;-45
2021/01/11 05:27:12;;;;;;;27.35;17.60;;;;;;;0.73;66.87;101296.88;1750567;80;21108;-45
2021/01/11 05:29:39;;;;;;;25.20;17.60;;;;;;;0.71;66.82;101299.94;1746238;80;21162;-43
2021/01/11 05:32:10;;;;;;;24.18;16.60;;;;;;;0.69;66.77;101303.01;1747641;80;21122;-43
2021/01/11 05:34:52;;;;;;;26.87;17.80;;;;;;;0.63;66.77;101299.98;1752708;80;21129;-44
2021/01/11 05:37:39;;;;;;;25.35;17.32;;;;;;;0.59;66.95;101308.73;1748922;80;21109;-44
2021/01/11 05:40:15;;;;;;;22.73;18.10;;;;;;;0.58;67.04;101316.19;1748617;80;21560;-42
2021/01/11 05:42:56;;;;;;;22.87;17.77;;;;;;;0.57;67.04;101307.86;1751243;80;21129;-44
2021/01/11 05:45:28;;;;;;;25.08;17.62;;;;;;;0.56;67.10;101309.20;1746925;80;21149;-42
2021/01/11 05:48:07;;;;;;;30.45;18.23;;;;;;;0.57;67.25;101307.86;1749991;80;21161;-42
2021/01/11 05:50:41;;;;;;;23.25;18.23;;;;;;;0.60;67.44;101306.97;1746861;80;21612;-42
2021/01/11 05:53:24;;;;;;;26.23;17.32;;;;;;;0.66;67.55;101308.28;1745513;80;21098;-43
2021/01/11 05:55:54;;;;;;;25.57;17.52;;;;;;;0.71;67.43;101301.25;1746609;80;21137;-42
2021/01/11 05:58:23;;;;;;;23.73;15.55;;;;;;;0.74;67.38;101310.87;1743071;80;21153;-41
2021/01/11 06:00:50;;;;;;;24.60;16.75;;;;;;;0.73;67.35;101306.48;1742042;80;21154;-44
2021/01/11 06:03:18;;;;;;;25.10;17.40;;;;;;;0.73;67.33;101313.94;1743701;80;21177;-41
2021/01/11 06:05:45;;;;;;;25.97;18.10;;;;;;;0.72;67.35;101309.55;1746243;80;21130;-45
2021/01/11 06:08:14;;;;;;;23.27;16.80;;;;;;;0.73;67.45;101315.25;1744984;80;21153;-44
2021/01/11 06:10:44;;;;;;;26.87;18.23;;;;;;;0.75;67.48;101319.16;1744177;80;21138;-44
2021/01/11 06:13:13;;;;;;;26.35;17.98;;;;;;;0.77;67.50;101318.27;1747678;80;21129;-48
2021/01/11 06:15:40;;;;;;;28.77;18.57;;;;;;;0.80;67.60;101320.88;1751801;80;21170;-41
2021/01/11 06:18:12;;;;;;;23.75;16.55;;;;;;;0.84;67.63;101321.76;1747793;80;21170;-43
2021/01/11 06:20:44;;;;;;;26.12;18.42;;;;;;;0.85;67.63;101329.61;1748738;80;21129;-41
2021/01/11 06:23:26;;;;;;;28.73;19.32;;;;;;;0.84;67.67;101333.13;1741064;80;21126;-41
2021/01/11 06:25:59;;;;;;;36.03;23.65;;;;;;;0.90;67.73;101333.98;1758398;79;23080;-43
2021/01/11 06:28:33;;;;;;;44.00;30.20;;;;;;;0.89;67.79;101330.93;1732578;80;21185;-44
2021/01/11 06:31:13;;;;;;;39.05;26.75;;;;;;;0.90;67.78;101330.91;1731649;80;21145;-42
2021/01/11 06:33:41;;;;;;;44.55;28.60;;;;;;;0.94;67.81;101333.09;1729095;82;21662;-43
2021/01/11 06:36:27;;;;;;;46.88;30.95;;;;;;;0.99;67.74;101328.69;1728192;80;21450;-42
2021/01/11 06:38:55;;;;;;;51.92;30.48;;;;;;;1.00;67.71;101327.34;1728387;80;21142;-45
2021/01/11 06:41:29;;;;;;;48.28;31.45;;;;;;;1.02;67.65;101321.64;1732887;80;21133;-43
2021/01/11 06:44:07;;;;;;;44.50;28.67;;;;;;;1.05;67.62;101322.06;1731008;80;21679;-44
2021/01/11 06:46:42;;;;;;;50.98;30.45;;;;;;;1.07;67.60;101322.48;1730258;80;21169;-42
2021/01/11 06:49:26;;;;;;;41.75;28.57;;;;;;;1.11;67.54;101327.30;1735524;80;21102;-43
2021/01/11 06:52:09;;;;;;;35.90;24.77;;;;;;;1.12;67.48;101326.85;1730717;80;21158;-43
2021/01/11 06:54:41;;;;;;;38.08;24.25;;;;;;;1.11;67.57;101320.73;1732387;80;21153;-43
2021/01/11 06:57:24;;;;;;;37.35;24.35;;;;;;;1.11;67.65;101321.15;1686751;83;21126;-43
2021/01/11 06:59:47;;;;;;;38.67;25.60;;;;;;;1.10;67.67;101316.79;1711243;82;21145;-42
2021/01/11 07:02:24;;;;;;;37.20;24.50;;;;;;;1.11;67.52;101322.46;1692839;82;21140;-43
2021/01/11 07:04:52;;;;;;;33.80;23.60;;;;;;;1.10;67.44;101324.22;1696284;82;21189;-44
2021/01/11 07:07:25;;;;;;;35.83;23.35;;;;;;;1.06;67.45;101320.76;1682657;82;21164;-43
2021/01/11 07:09:58;;;;;;;34.90;24.67;;;;;;;1.03;67.62;101314.22;1666850;83;21173;-49
2021/01/11 07:12:26;;;;;;;38.38;24.40;;;;;;;1.01;67.79;101310.72;1671252;83;21884;-43
2021/01/11 07:15:14;;;;;;;36.63;23.22;;;;;;;1.03;67.94;101311.59;1665897;83;21176;-42
2021/01/11 07:17:48;;;;;;;33.73;21.95;;;;;;;1.05;67.94;101311.11;1662615;83;21636;-42
2021/01/11 07:20:27;;;;;;;28.32;21.97;;;;;;;1.10;67.87;101315.48;1670292;83;21291;-43
2021/01/11 07:22:54;;;;;;;32.73;22.35;;;;;;;1.09;67.89;101317.23;1668164;83;21125;-40
2021/01/11 07:25:23;;;;;;;35.95;23.20;;;;;;;1.07;67.96;101317.68;1662373;83;21571;-42
2021/01/11 07:28:00;;;;;;;30.50;21.93;;;;;;;1.09;67.99;101314.61;1637800;86;21648;-42
2021/01/11 07:30:28;;;;;;;32.30;23.95;;;;;;;1.10;67.98;101318.97;1691148;82;21153;-43
2021/01/11 07:32:57;;;;;;;40.83;27.22;;;;;;;1.10;67.94;101324.67;1654885;84;21141;-42
2021/01/11 07:35:25;;;;;;;34.90;23.92;;;;;;;1.06;67.93;101315.50;1684764;83;21198;-42
2021/01/11 07:37:52;;;;;;;36.23;24.65;;;;;;;1.07;68.02;101312.43;1690137;83;21153;-43
2021/01/11 07:40:22;;;;;;;38.80;25.37;;;;;;;1.07;68.14;101314.61;1681254;82;21169;-44
2021/01/11 07:42:50;;;;;;;34.83;24.50;;;;;;;1.10;68.21;101321.59;1680608;82;21141;-43
2021/01/11 07:45:18;;;;;;;35.95;24.60;;;;;;;1.15;68.17;101327.70;1687354;82;21158;-44
2021/01/11 07:50:31;;;;;;;29.80;21.17;;;;;;;1.23;68.06;101325.88;1759102;79;22629;-42
2021/01/11 07:52:59;;;;;;;32.10;22.52;;;;;;;1.20;68.07;101324.59;1680042;83;21181;-50
2021/01/11 07:55:28;;;;;;;30.37;20.43;;;;;;;1.22;68.17;101325.91;1705942;82;21136;-44
2021/01/11 07:58:02;;;;;;;27.93;20.52;;;;;;;1.20;68.27;101323.28;1682694;83;21174;-42
2021/01/11 08:00:29;;;;;;;27.48;19.65;;;;;;;1.22;68.33;101327.22;1745578;80;21122;-43
2021/01/11 08:02:58;;;;;;;24.72;19.10;;;;;;;1.26;68.39;101334.19;1739777;80;21679;-42
2021/01/11 08:05:27;;;;;;;24.25;18.17;;;;;;;1.27;68.19;101333.33;1747582;80;21094;-45
2021/01/11 08:08:05;;;;;;;26.07;19.15;;;;;;;1.24;68.23;101339.92;1687013;83;21141;-43
2021/01/11 08:10:39;;;;;;;27.93;19.30;;;;;;;1.19;68.20;101348.28;1663398;84;21443;-45
2021/01/11 08:13:22;;;;;;;27.07;20.35;;;;;;;1.16;68.26;101341.28;1664031;85;21591;-41
2021/01/11 08:15:53;;;;;;;28.60;22.42;;;;;;;1.14;68.49;101336.47;1670383;83;21189;-42
2021/01/11 08:18:22;;;;;;;27.37;20.02;;;;;;;1.15;68.63;101336.89;1656864;84;21153;-40
2021/01/11 08:20:50;;;;;;;29.98;20.92;;;;;;;1.19;68.69;101343.02;1683465;83;21638;-42
2021/01/11 08:23:21;;;;;;;28.47;21.68;;;;;;;1.23;68.70;101338.16;1688419;83;21161;-41
2021/01/11 08:25:49;;;;;;;28.10;20.75;;;;;;;1.27;68.74;101349.95;1619974;85;21161;-40
2021/01/11 08:28:17;;;;;;;29.07;21.73;;;;;;;1.31;68.73;101348.20;1724136;81;21145;-43
2021/01/11 08:30:44;;;;;;;30.40;22.62;;;;;;;1.34;68.60;101354.74;1693083;81;21128;-41
2021/01/11 08:33:12;;;;;;;40.03;29.00;;;;;;;1.35;68.65;101358.23;1723263;81;21154;-41
2021/01/11 08:35:40;;;;;;;35.43;25.57;;;;;;;1.34;68.65;101353.88;1726991;81;21595;-43
2021/01/11 08:38:11;;;;;;;38.23;29.05;;;;;;;1.32;68.72;101351.25;1724642;81;21298;-41
2021/01/11 08:40:38;;;;;;;39.40;27.52;;;;;;;1.34;68.80;101353.43;1723130;81;21131;-41
2021/01/11 08:43:13;;;;;;;40.40;28.52;;;;;;;1.37;68.79;101363.05;1723588;81;21282;-40
2021/01/11 08:45:41;;;;;;;37.80;27.90;;;;;;;1.40;68.78;101356.00;1724817;81;21152;-40
2021/01/11 08:48:12;;;;;;;39.55;28.75;;;;;;;1.43;68.72;101351.16;1724328;81;21589;-41
2021/01/11 08:50:45;;;;;;;39.53;27.65;;;;;;;1.45;68.68;101348.95;1703318;83;21146;-42
2021/01/11 08:53:38;;;;;;;37.88;25.62;;;;;;;1.47;68.67;101351.59;1704248;82;21139;-42
2021/01/11 08:56:10;;;;;;;40.33;27.60;;;;;;;1.47;68.68;101355.08;1706553;82;21958;-40
2021/01/11 08:58:41;;;;;;;37.70;27.15;;;;;;;1.49;68.67;101355.95;1708660;82;21149;-42
2021/01/11 09:01:24;;;;;;;41.15;27.45;;;;;;;1.50;68.63;101352.88;1682971;82;21141;-48
2021/01/11 09:03:55;;;;;;;40.50;28.90;;;;;;;1.50;68.68;101355.50;1706520;82;21330;-46
2021/01/11 09:06:42;;;;;;;36.48;25.10;;;;;;;1.53;68.67;101352.84;1708391;82;21153;-46
2021/01/11 09:09:18;;;;;;;35.70;23.55;;;;;;;1.54;68.50;101348.45;1701404;83;21114;-47
2021/01/11 09:11:48;;;;;;;31.87;21.07;;;;;;;1.53;68.37;101350.21;1703900;82;21126;-46
2021/01/11 09:14:17;;;;;;;31.62;21.77;;;;;;;1.48;68.35;101337.09;1703964;82;21146;-45
2021/01/11 09:16:46;;;;;;;27.35;19.75;;;;;;;1.46;68.34;101341.52;1704537;82;21762;-42
2021/01/11 09:19:16;;;;;;;27.55;19.52;;;;;;;1.44;68.50;101339.34;1677248;84;21685;-43
2021/01/11 09:21:46;;;;;;;33.83;22.37;;;;;;;1.47;68.65;101337.99;1713261;82;21935;-41
2021/01/11 09:24:14;;;;;;;28.17;21.20;;;;;;;1.53;68.71;101340.14;1710460;82;21140;-42
2021/01/11 09:26:42;;;;;;;29.80;19.55;;;;;;;1.48;68.79;101337.09;1712558;82;21346;-41
2021/01/11 09:29:10;;;;;;;28.77;18.07;;;;;;;1.42;68.96;101344.17;1712495;82;21157;-42
2021/01/11 09:31:37;;;;;;;28.05;20.23;;;;;;;1.39;68.86;101344.20;1715426;82;21149;-41
2021/01/11 09:34:05;;;;;;;25.88;18.05;;;;;;;1.36;69.01;101341.16;1712232;82;21153;-42
2021/01/11 09:36:38;;;;;;;29.92;17.02;;;;;;;1.38;69.08;101336.73;1712863;82;21146;-42
2021/01/11 09:39:07;;;;;;;26.80;17.65;;;;;;;1.42;69.08;101339.78;1712711;82;21522;-42
2021/01/11 09:41:57;;;;;;;26.02;17.57;;;;;;;1.47;68.96;101335.36;1711713;82;21149;-44
2021/01/11 09:44:25;;;;;;;25.05;17.87;;;;;;;1.49;68.96;101328.34;1712597;82;21185;-41
2021/01/11 09:46:54;;;;;;;26.70;17.07;;;;;;;1.54;68.89;101327.00;1710933;82;21169;-41
2021/01/11 09:49:23;;;;;;;22.42;16.17;;;;;;;1.58;68.75;101335.27;1709109;82;21899;-42
2021/01/11 09:51:51;;;;;;;22.70;14.87;;;;;;;1.61;68.67;101330.43;1703496;82;21211;-43
2021/01/11 09:54:19;;;;;;;21.15;15.80;;;;;;;1.65;68.51;101325.14;1702494;82;21185;-44
2021/01/11 09:56:47;;;;;;;18.50;14.23;;;;;;;1.69;68.46;101322.92;1704253;82;21562;-43
2021/01/11 09:59:17;;;;;;;19.52;14.47;;;;;;;1.72;68.30;101324.20;1673359;84;21149;-44
2021/01/11 10:01:49;;;;;;;22.37;15.35;;;;;;;1.76;68.21;101325.48;1668033;84;21715;-43
2021/01/11 10:04:25;;;;;;;20.45;14.15;;;;;;;1.76;68.17;101323.72;1701203;82;21166;-46
2021/01/11 10:07:07;;;;;;;19.55;14.35;;;;;;;1.75;68.12;101316.73;1702886;82;21142;-42
2021/01/11 10:09:36;;;;;;;16.40;11.28;;;;;;;1.77;67.99;101318.05;1704548;82;21154;-45
2021/01/11 10:12:05;;;;;;;18.60;12.18;;;;;;;1.81;67.79;101315.80;1711304;82;21151;-42
2021/01/11 10:14:33;;;;;;;16.77;11.85;;;;;;;1.84;67.39;101311.81;1706764;82;21407;-45
2021/01/11 10:17:01;;;;;;;16.17;11.75;;;;;;;1.80;67.15;101310.98;1710984;82;21470;-45
2021/01/11 10:19:29;;;;;;;17.95;12.40;;;;;;;1.79;67.22;101318.88;1705070;82;21277;-44
2021/01/11 10:22:02;;;;;;;18.45;13.58;;;;;;;1.81;67.02;101321.92;1705782;82;21144;-42
2021/01/11 10:24:29;;;;;;;17.40;13.43;;;;;;;1.79;66.85;101309.25;1704177;82;21181;-41
2021/01/11 10:26:58;;;;;;;17.23;12.03;;;;;;;1.78;66.80;101312.75;1701050;82;21720;-41
2021/01/11 10:29:25;;;;;;;18.40;11.90;;;;;;;1.80;66.76;101310.12;1703800;82;21169;-42
2021/01/11 10:31:54;;;;;;;18.98;12.98;;;;;;;1.79;66.76;101307.94;1706737;82;21138;-41
2021/01/11 10:34:22;;;;;;;24.07;15.80;;;;;;;1.81;66.80;101296.94;1704393;82;21153;-40
2021/01/11 10:36:51;;;;;;;20.27;13.35;;;;;;;1.84;66.78;101300.88;1704406;82;21138;-41
2021/01/11 10:39:22;;;;;;;16.55;12.23;;;;;;;1.86;66.73;101295.58;1704582;82;21162;-49
2021/01/11 10:41:52;;;;;;;17.65;13.43;;;;;;;1.89;66.73;101296.44;1703855;82;21140;-43
2021/01/11 10:44:22;;;;;;;18.30;13.25;;;;;;;1.91;66.63;101297.27;1706047;82;21153;-46
2021/01/11 10:46:50;;;;;;;17.17;12.53;;;;;;;1.94;66.52;101295.95;1705853;82;21850;-48
2021/01/11 10:49:19;;;;;;;18.30;11.85;;;;;;;1.93;66.34;101294.19;1709434;82;21115;-40
2021/01/11 10:51:48;;;;;;;17.50;12.60;;;;;;;1.94;66.26;101297.69;1706923;82;21140;-41
2021/01/11 10:54:16;;;;;;;17.37;11.63;;;;;;;1.95;66.22;101301.63;1711439;82;21664;-42
2021/01/11 10:56:44;;;;;;;15.58;11.10;;;;;;;1.97;66.11;101302.94;1710810;82;21149;-45
2021/01/11 10:59:12;;;;;;;17.37;11.50;;;;;;;2.00;65.96;101302.91;1706154;82;21556;-44
2021/01/11 11:01:41;;;;;;;18.67;12.00;;;;;;;1.99;66.00;101298.55;1708843;82;21325;-43
2021/01/11 11:04:09;;;;;;;22.37;13.43;;;;;;;1.99;65.92;101298.95;1711532;82;21119;-42
2021/01/11 11:06:37;;;;;;;17.10;12.10;;;;;;;2.00;65.96;101296.78;1713579;82;21160;-42
2021/01/11 11:09:04;;;;;;;20.27;14.23;;;;;;;2.01;65.89;101295.42;1708850;82;21165;-44
2021/01/11 11:11:34;;;;;;;22.02;14.70;;;;;;;2.03;65.81;101284.45;1710267;82;21599;-44
2021/01/11 11:14:01;;;;;;;22.87;15.03;;;;;;;2.05;65.79;101289.25;1713826;82;21462;-43
2021/01/11 11:16:29;;;;;;;24.40;14.98;;;;;;;2.06;65.72;101280.91;1714237;82;21164;-40
2021/01/11 11:18:57;;;;;;;28.95;15.40;;;;;;;2.09;65.59;101286.13;1710500;82;21153;-42
2021/01/11 11:21:25;;;;;;;25.32;17.50;;;;;;;2.11;65.47;101290.48;1711121;82;21438;-47
2021/01/11 11:23:54;;;;;;;23.05;15.35;;;;;;;2.11;65.43;101281.73;1705235;82;21226;-46
2021/01/11 11:26:22;;;;;;;23.50;16.45;;;;;;;2.10;65.32;101283.50;1595594;82;3529509;-45
2021/01/11 11:28:59;;;;;;;21.15;14.35;;;;;;;2.14;65.38;101280.38;1797015;77;22446;-44
2021/01/11 11:31:30;;;;;;;19.65;13.43;;;;;;;2.10;65.35;101275.61;1769595;79;21522;-43
2021/01/11 11:33:58;;;;;;;19.62;13.30;;;;;;;2.11;65.22;101275.16;1770140;79;21118;-43
2021/01/11 11:36:26;;;;;;;20.25;13.62;;;;;;;2.11;65.23;101273.84;1769843;79;22092;-43